createdAt,value
2018-06-29T00:00:30.958Z,0.00
2018-06-29T00:01:30.932Z,0.00
2018-06-29T00:02:30.935Z,0.00
2018-06-29T00:03:30.943Z,0.00
2018-06-29T00:04:30.952Z,0.00
2018-06-29T00:05:31.055Z,0.00
2018-06-29T00:06:30.964Z,0.00
2018-06-29T00:07:30.971Z,0.00
2018-06-29T00:08:30.987Z,0.00
2018-06-29T00:09:30.981Z,0.00
2018-06-29T00:10:30.990Z,0.00
2018-06-29T00:11:30.997Z,0.00
2018-06-29T00:12:31.000Z,0.00
2018-06-29T00:13:31.017Z,0.00
2018-06-29T00:14:31.014Z,0.00
2018-06-29T00:15:31.018Z,0.00
2018-06-29T00:16:31.025Z,0.00
2018-06-29T00:17:31.033Z,0.00
2018-06-29T00:18:31.034Z,0.00
2018-06-29T00:19:31.047Z,0.00
2018-06-29T00:20:31.051Z,0.00
2018-06-29T00:21:31.056Z,0.00
2018-06-29T00:22:31.064Z,0.00
2018-06-29T00:23:31.101Z,0.00
2018-06-29T00:24:31.075Z,0.00
2018-06-29T00:25:31.081Z,0.00
2018-06-29T00:26:31.087Z,0.00
2018-06-29T00:27:31.089Z,0.00
2018-06-29T00:28:31.104Z,0.00
2018-06-29T00:29:31.112Z,0.00
2018-06-29T00:30:31.112Z,0.00
2018-06-29T00:31:31.120Z,0.00
2018-06-29T00:32:31.123Z,0.00
2018-06-29T00:33:31.129Z,0.00
2018-06-29T00:34:31.136Z,0.00
2018-06-29T00:35:31.150Z,0.00
2018-06-29T00:36:31.155Z,0.00
2018-06-29T00:37:31.156Z,0.00
2018-06-29T00:38:31.162Z,0.00
2018-06-29T00:39:31.176Z,0.00
2018-06-29T00:40:31.184Z,0.00
2018-06-29T00:41:31.180Z,0.00
2018-06-29T00:42:31.187Z,0.00
2018-06-29T00:43:31.200Z,0.00
2018-06-29T00:44:31.206Z,0.00
2018-06-29T00:45:31.204Z,0.00
2018-06-29T00:46:31.216Z,0.00
2018-06-29T00:47:31.217Z,0.00
2018-06-29T00:48:31.227Z,0.00
2018-06-29T00:49:31.232Z,0.00
2018-06-29T00:50:31.236Z,0.00
2018-06-29T00:51:31.238Z,0.00
2018-06-29T00:52:31.257Z,0.00
2018-06-29T00:53:31.252Z,0.00
2018-06-29T00:54:31.290Z,0.00
2018-06-29T00:55:31.264Z,0.00
2018-06-29T00:56:31.280Z,0.00
2018-06-29T00:57:31.283Z,0.00
2018-06-29T00:58:31.282Z,0.00
2018-06-29T00:59:31.291Z,0.00
2018-06-29T01:00:31.302Z,0.00
2018-06-29T01:01:31.303Z,0.00
2018-06-29T01:02:31.333Z,0.00
2018-06-29T01:03:31.322Z,0.00
2018-06-29T01:04:31.327Z,0.00
2018-06-29T01:05:31.338Z,0.00
2018-06-29T01:06:31.335Z,0.00
2018-06-29T01:07:31.340Z,0.00
2018-06-29T01:08:31.353Z,0.00
2018-06-29T01:09:31.354Z,0.00
2018-06-29T01:10:31.377Z,0.00
2018-06-29T01:11:31.370Z,0.00
2018-06-29T01:12:31.381Z,0.00
2018-06-29T01:13:31.382Z,0.00
2018-06-29T01:14:31.397Z,0.00
2018-06-29T01:15:31.391Z,0.00
2018-06-29T01:16:31.411Z,0.00
2018-06-29T01:17:31.406Z,0.00
2018-06-29T01:18:31.414Z,0.00
2018-06-29T01:19:31.418Z,0.00
2018-06-29T01:20:31.424Z,0.00
2018-06-29T01:21:31.453Z,0.00
2018-06-29T01:22:31.458Z,0.00
2018-06-29T01:23:31.437Z,0.00
2018-06-29T01:24:31.449Z,0.00
2018-06-29T01:25:31.452Z,0.00
2018-06-29T01:26:31.464Z,0.00
2018-06-29T01:27:31.464Z,0.00
2018-06-29T01:28:31.496Z,0.00
2018-06-29T01:29:31.475Z,0.00
2018-06-29T01:30:31.481Z,0.00
2018-06-29T01:31:31.489Z,0.00
2018-06-29T01:32:31.497Z,0.00
2018-06-29T01:33:31.502Z,0.00
2018-06-29T01:34:31.513Z,0.00
2018-06-29T01:35:31.511Z,0.00
2018-06-29T01:36:31.522Z,0.00
2018-06-29T01:37:31.524Z,0.00
2018-06-29T01:38:31.529Z,0.00
2018-06-29T01:39:31.537Z,0.00
2018-06-29T01:40:31.547Z,0.00
2018-06-29T01:41:31.561Z,0.00
2018-06-29T01:42:31.564Z,0.00
2018-06-29T01:43:31.563Z,0.00
2018-06-29T01:44:31.579Z,0.00
2018-06-29T01:45:31.606Z,0.00
2018-06-29T01:46:31.591Z,0.00
2018-06-29T01:47:31.586Z,0.00
2018-06-29T01:48:31.595Z,0.00
2018-06-29T01:49:31.599Z,0.00
2018-06-29T01:50:31.615Z,0.00
2018-06-29T01:51:31.611Z,0.00
2018-06-29T01:52:31.658Z,0.00
2018-06-29T01:53:31.636Z,0.00
2018-06-29T01:54:31.631Z,0.00
2018-06-29T01:55:31.636Z,0.00
2018-06-29T01:56:31.647Z,0.00
2018-06-29T01:57:31.647Z,0.00
2018-06-29T01:58:31.656Z,0.00
2018-06-29T01:59:31.661Z,0.00
2018-06-29T02:00:31.667Z,0.00
2018-06-29T02:01:31.673Z,0.00
2018-06-29T02:02:31.684Z,0.00
2018-06-29T02:03:31.703Z,0.00
2018-06-29T02:04:31.692Z,0.00
2018-06-29T02:05:31.699Z,0.00
2018-06-29T02:06:31.704Z,0.00
2018-06-29T02:07:31.712Z,0.00
2018-06-29T02:08:31.727Z,0.00
2018-06-29T02:09:31.722Z,0.00
2018-06-29T02:10:31.734Z,0.00
2018-06-29T02:11:31.734Z,0.00
2018-06-29T02:12:31.745Z,0.00
2018-06-29T02:13:31.749Z,0.00
2018-06-29T02:14:31.752Z,0.00
2018-06-29T02:15:31.761Z,0.00
2018-06-29T02:16:31.776Z,0.00
2018-06-29T02:17:31.776Z,0.00
2018-06-29T02:18:31.785Z,0.00
2018-06-29T02:19:31.784Z,0.00
2018-06-29T02:20:31.790Z,0.00
2018-06-29T02:21:31.808Z,0.00
2018-06-29T02:22:31.811Z,0.00
2018-06-29T02:23:31.810Z,0.00
2018-06-29T02:24:31.818Z,0.00
2018-06-29T02:25:31.825Z,0.00
2018-06-29T02:26:31.831Z,0.00
2018-06-29T02:27:31.886Z,0.00
2018-06-29T02:28:31.851Z,0.00
2018-06-29T02:29:31.846Z,0.00
2018-06-29T02:30:31.893Z,0.00
2018-06-29T02:31:31.864Z,0.00
2018-06-29T02:32:31.904Z,0.00
2018-06-29T02:33:31.896Z,0.00
2018-06-29T02:34:31.888Z,0.00
2018-06-29T02:35:31.883Z,0.00
2018-06-29T02:36:31.915Z,0.00
2018-06-29T02:37:31.899Z,0.00
2018-06-29T02:38:31.915Z,0.00
2018-06-29T02:39:31.914Z,0.00
2018-06-29T02:40:31.916Z,0.00
2018-06-29T02:41:31.929Z,0.00
2018-06-29T02:42:31.931Z,0.00
2018-06-29T02:43:31.932Z,0.00
2018-06-29T02:44:31.942Z,0.00
2018-06-29T02:45:31.944Z,0.00
2018-06-29T02:46:31.959Z,0.00
2018-06-29T02:47:31.956Z,0.00
2018-06-29T02:48:31.984Z,0.00
2018-06-29T02:49:31.970Z,0.00
2018-06-29T02:50:31.984Z,0.00
2018-06-29T02:51:31.980Z,0.00
2018-06-29T02:52:31.991Z,0.00
2018-06-29T02:53:32.016Z,0.00
2018-06-29T02:54:32.000Z,0.00
2018-06-29T02:55:32.006Z,0.00
2018-06-29T02:56:32.021Z,0.00
2018-06-29T02:57:32.093Z,0.00
2018-06-29T02:58:32.031Z,0.00
2018-06-29T02:59:32.032Z,0.00
2018-06-29T03:00:32.041Z,0.00
2018-06-29T03:01:32.044Z,0.00
2018-06-29T03:02:32.057Z,0.00
2018-06-29T03:03:32.057Z,0.00
2018-06-29T03:04:32.074Z,0.00
2018-06-29T03:05:32.067Z,0.00
2018-06-29T03:06:32.077Z,0.00
2018-06-29T03:07:32.081Z,0.00
2018-06-29T03:08:32.096Z,0.00
2018-06-29T03:09:32.098Z,4.00
2018-06-29T03:10:32.097Z,4.00
2018-06-29T03:11:32.104Z,0.00
2018-06-29T03:12:32.111Z,0.00
2018-06-29T03:13:32.118Z,0.00
2018-06-29T03:14:32.134Z,4.00
2018-06-29T03:15:32.130Z,4.00
2018-06-29T03:16:32.139Z,4.00
2018-06-29T03:17:32.143Z,4.00
2018-06-29T03:18:32.145Z,0.00
2018-06-29T03:19:32.154Z,4.00
2018-06-29T03:20:32.164Z,4.00
2018-06-29T03:21:32.165Z,4.00
2018-06-29T03:22:32.200Z,8.00
2018-06-29T03:23:32.177Z,4.00
2018-06-29T03:24:32.185Z,4.00
2018-06-29T03:25:32.191Z,8.00
2018-06-29T03:26:32.204Z,4.00
2018-06-29T03:27:32.204Z,8.00
2018-06-29T03:28:32.215Z,8.00
2018-06-29T03:29:32.216Z,8.00
2018-06-29T03:30:32.256Z,8.00
2018-06-29T03:31:32.233Z,8.00
2018-06-29T03:32:32.239Z,12.00
2018-06-29T03:33:32.240Z,12.00
2018-06-29T03:34:32.250Z,12.00
2018-06-29T03:35:32.250Z,12.00
2018-06-29T03:36:32.272Z,12.00
2018-06-29T03:37:32.260Z,12.00
2018-06-29T03:38:32.277Z,16.00
2018-06-29T03:39:32.276Z,20.00
2018-06-29T03:40:32.417Z,20.00
2018-06-29T03:41:32.287Z,20.00
2018-06-29T03:42:32.296Z,24.00
2018-06-29T03:43:32.303Z,24.00
2018-06-29T03:44:32.309Z,32.00
2018-06-29T03:45:32.316Z,32.00
2018-06-29T03:46:32.322Z,36.00
2018-06-29T03:47:32.321Z,36.00
2018-06-29T03:48:32.329Z,40.00
2018-06-29T03:49:32.396Z,44.00
2018-06-29T03:50:32.346Z,44.00
2018-06-29T03:51:32.346Z,44.00
2018-06-29T03:52:32.390Z,44.00
2018-06-29T03:53:32.372Z,44.00
2018-06-29T03:54:32.379Z,44.00
2018-06-29T03:55:32.385Z,48.00
2018-06-29T03:56:32.384Z,48.00
2018-06-29T03:57:32.396Z,48.00
2018-06-29T03:58:32.400Z,44.00
2018-06-29T03:59:32.400Z,44.00
2018-06-29T04:00:32.410Z,40.00
2018-06-29T04:01:32.410Z,40.00
2018-06-29T04:02:32.430Z,44.00
2018-06-29T04:03:32.424Z,44.00
2018-06-29T04:04:32.429Z,48.00
2018-06-29T04:05:32.436Z,44.00
2018-06-29T04:06:32.450Z,48.00
2018-06-29T04:07:32.447Z,44.00
2018-06-29T04:08:32.460Z,48.00
2018-06-29T04:09:32.457Z,44.00
2018-06-29T04:10:32.474Z,44.00
2018-06-29T04:11:32.472Z,48.00
2018-06-29T04:12:32.476Z,52.00
2018-06-29T04:13:32.487Z,52.00
2018-06-29T04:14:32.487Z,60.00
2018-06-29T04:15:32.498Z,64.00
2018-06-29T04:16:32.515Z,68.00
2018-06-29T04:17:32.506Z,68.00
2018-06-29T04:18:32.513Z,68.00
2018-06-29T04:19:32.522Z,72.00
2018-06-29T04:20:32.535Z,80.00
2018-06-29T04:21:32.533Z,80.00
2018-06-29T04:22:32.540Z,84.00
2018-06-29T04:23:32.544Z,88.00
2018-06-29T04:24:32.561Z,96.00
2018-06-29T04:25:32.556Z,100.00
2018-06-29T04:26:32.608Z,104.00
2018-06-29T04:27:32.569Z,100.00
2018-06-29T04:28:32.584Z,96.00
2018-06-29T04:29:32.607Z,92.00
2018-06-29T04:30:32.587Z,88.00
2018-06-29T04:31:32.597Z,84.00
2018-06-29T04:32:32.610Z,84.00
2018-06-29T04:33:32.605Z,84.00
2018-06-29T04:34:32.610Z,84.00
2018-06-29T04:35:32.620Z,84.00
2018-06-29T04:36:32.621Z,80.00
2018-06-29T04:37:32.653Z,84.00
2018-06-29T04:38:32.634Z,84.00
2018-06-29T04:39:32.640Z,84.00
2018-06-29T04:40:32.660Z,84.00
2018-06-29T04:41:32.665Z,88.00
2018-06-29T04:42:32.675Z,84.00
2018-06-29T04:43:32.670Z,84.00
2018-06-29T04:44:32.678Z,84.00
2018-06-29T04:45:32.684Z,84.00
2018-06-29T04:46:32.685Z,84.00
2018-06-29T04:47:32.688Z,80.00
2018-06-29T04:48:32.703Z,80.00
2018-06-29T04:49:32.702Z,84.00
2018-06-29T04:50:32.710Z,88.00
2018-06-29T04:51:32.717Z,96.00
2018-06-29T04:52:32.724Z,104.00
2018-06-29T04:53:32.729Z,116.00
2018-06-29T04:54:32.737Z,132.00
2018-06-29T04:55:32.738Z,152.00
2018-06-29T04:56:32.744Z,176.00
2018-06-29T04:57:32.780Z,212.00
2018-06-29T04:58:32.773Z,240.00
2018-06-29T04:59:32.780Z,252.00
2018-06-29T05:00:32.770Z,252.00
2018-06-29T05:01:32.776Z,248.00
2018-06-29T05:02:32.786Z,240.00
2018-06-29T05:03:32.788Z,236.00
2018-06-29T05:04:32.826Z,252.00
2018-06-29T05:05:32.813Z,284.00
2018-06-29T05:06:32.837Z,300.00
2018-06-29T05:07:32.811Z,296.00
2018-06-29T05:08:32.829Z,292.00
2018-06-29T05:09:32.827Z,292.00
2018-06-29T05:10:32.847Z,284.00
2018-06-29T05:11:32.837Z,276.00
2018-06-29T05:12:32.846Z,272.00
2018-06-29T05:13:32.852Z,272.00
2018-06-29T05:14:32.887Z,276.00
2018-06-29T05:15:32.960Z,280.00
2018-06-29T05:16:32.883Z,288.00
2018-06-29T05:17:32.905Z,292.00
2018-06-29T05:18:32.936Z,284.00
2018-06-29T05:19:32.957Z,280.00
2018-06-29T05:20:32.920Z,292.00
2018-06-29T05:21:32.980Z,308.00
2018-06-29T05:22:32.947Z,320.00
2018-06-29T05:23:32.915Z,324.00
2018-06-29T05:24:32.976Z,316.00
2018-06-29T05:25:32.935Z,320.00
2018-06-29T05:26:32.960Z,320.00
2018-06-29T05:27:32.936Z,316.00
2018-06-29T05:28:32.971Z,316.00
2018-06-29T05:29:33.020Z,312.00
2018-06-29T05:30:32.968Z,320.00
2018-06-29T05:31:32.964Z,324.00
2018-06-29T05:32:32.992Z,328.00
2018-06-29T05:33:32.977Z,340.00
2018-06-29T05:34:32.986Z,356.00
2018-06-29T05:35:32.990Z,384.00
2018-06-29T05:36:33.004Z,460.00
2018-06-29T05:37:32.999Z,568.00
2018-06-29T05:38:33.027Z,652.00
2018-06-29T05:39:33.013Z,716.00
2018-06-29T05:40:33.040Z,796.00
2018-06-29T05:41:33.113Z,892.00
2018-06-29T05:42:33.133Z,884.00
2018-06-29T05:43:33.041Z,824.00
2018-06-29T05:44:33.090Z,828.00
2018-06-29T05:45:33.073Z,784.00
2018-06-29T05:46:33.064Z,744.00
2018-06-29T05:47:33.107Z,752.00
2018-06-29T05:48:33.099Z,784.00
2018-06-29T05:49:33.081Z,804.00
2018-06-29T05:50:33.094Z,884.00
2018-06-29T05:51:33.090Z,976.00
2018-06-29T05:52:33.154Z,976.00
2018-06-29T05:53:33.125Z,944.00
2018-06-29T05:54:33.112Z,856.00
2018-06-29T05:55:33.165Z,796.00
2018-06-29T05:56:33.143Z,780.00
2018-06-29T05:57:33.164Z,744.00
2018-06-29T05:58:33.154Z,676.00
2018-06-29T05:59:33.176Z,592.00
2018-06-29T06:00:33.151Z,548.00
2018-06-29T06:01:33.161Z,520.00
2018-06-29T06:02:33.185Z,520.00
2018-06-29T06:03:33.235Z,572.00
2018-06-29T06:04:33.312Z,612.00
2018-06-29T06:05:33.284Z,612.00
2018-06-29T06:06:33.285Z,560.00
2018-06-29T06:07:33.227Z,492.00
2018-06-29T06:08:33.316Z,428.00
2018-06-29T06:09:33.254Z,400.00
2018-06-29T06:10:33.265Z,396.00
2018-06-29T06:11:33.247Z,400.00
2018-06-29T06:12:33.302Z,396.00
2018-06-29T06:13:33.237Z,376.00
2018-06-29T06:14:33.259Z,360.00
2018-06-29T06:15:33.250Z,376.00
2018-06-29T06:16:33.255Z,416.00
2018-06-29T06:17:33.382Z,448.00
2018-06-29T06:18:33.508Z,456.00
2018-06-29T06:19:33.277Z,440.00
2018-06-29T06:20:33.287Z,416.00
2018-06-29T06:21:33.288Z,420.00
2018-06-29T06:22:33.351Z,428.00
2018-06-29T06:23:33.329Z,444.00
2018-06-29T06:24:33.354Z,448.00
2018-06-29T06:25:33.318Z,464.00
2018-06-29T06:26:33.327Z,508.00
2018-06-29T06:27:33.360Z,544.00
2018-06-29T06:28:33.345Z,584.00
2018-06-29T06:29:33.343Z,664.00
2018-06-29T06:30:33.365Z,748.00
2018-06-29T06:31:33.360Z,812.00
2018-06-29T06:32:33.372Z,936.00
2018-06-29T06:33:33.373Z,1084.00
2018-06-29T06:34:33.381Z,1228.00
2018-06-29T06:35:33.385Z,1328.00
2018-06-29T06:36:33.397Z,1268.00
2018-06-29T06:37:33.414Z,1140.00
2018-06-29T06:38:33.411Z,1060.00
2018-06-29T06:39:33.414Z,1052.00
2018-06-29T06:40:33.420Z,1092.00
2018-06-29T06:41:33.454Z,1112.00
2018-06-29T06:42:33.455Z,1116.00
2018-06-29T06:43:33.440Z,1120.00
2018-06-29T06:44:33.450Z,1092.00
2018-06-29T06:45:33.514Z,1096.00
2018-06-29T06:46:33.463Z,1184.00
2018-06-29T06:47:33.477Z,1068.00
2018-06-29T06:48:33.521Z,1036.00
2018-06-29T06:49:33.494Z,1084.00
2018-06-29T06:50:33.519Z,1192.00
2018-06-29T06:51:33.504Z,1308.00
2018-06-29T06:52:33.525Z,1364.00
2018-06-29T06:53:33.585Z,1396.00
2018-06-29T06:54:33.526Z,1468.00
2018-06-29T06:55:33.529Z,1520.00
2018-06-29T06:56:33.650Z,1560.00
2018-06-29T06:57:33.545Z,1600.00
2018-06-29T06:58:33.562Z,1676.00
2018-06-29T06:59:33.618Z,1768.00
2018-06-29T07:00:33.627Z,1824.00
2018-06-29T07:01:33.632Z,1860.00
2018-06-29T07:02:33.579Z,1812.00
2018-06-29T07:03:33.877Z,1816.00
2018-06-29T07:04:33.593Z,1932.00
2018-06-29T07:05:33.609Z,1948.00
2018-06-29T07:06:33.753Z,1928.00
2018-06-29T07:07:33.613Z,1872.00
2018-06-29T07:08:33.682Z,1756.00
2018-06-29T07:09:33.686Z,1776.00
2018-06-29T07:10:33.634Z,1796.00
2018-06-29T07:11:33.677Z,1820.00
2018-06-29T07:12:33.725Z,1800.00
2018-06-29T07:13:33.666Z,1820.00
2018-06-29T07:14:33.672Z,1920.00
2018-06-29T07:15:33.698Z,1948.00
2018-06-29T07:16:34.684Z,1968.00
2018-06-29T07:17:33.689Z,1876.00
2018-06-29T07:18:33.764Z,1788.00
2018-06-29T07:19:33.870Z,1684.00
2018-06-29T07:20:33.760Z,1672.00
2018-06-29T07:21:33.765Z,1684.00
2018-06-29T07:22:33.744Z,1480.00
2018-06-29T07:23:33.799Z,1484.00
2018-06-29T07:24:34.793Z,1576.00
2018-06-29T07:25:34.646Z,1688.00
2018-06-29T07:26:34.667Z,1620.00
2018-06-29T07:27:35.527Z,1608.00
2018-06-29T07:28:34.520Z,1672.00
2018-06-29T07:29:35.528Z,1604.00
2018-06-29T07:30:35.549Z,1660.00
2018-06-29T07:31:35.509Z,1636.00
2018-06-29T07:32:34.488Z,1652.00
2018-06-29T07:33:35.464Z,1612.00
2018-06-29T07:34:33.864Z,1644.00
2018-06-29T07:35:34.660Z,1704.00
2018-06-29T07:36:34.692Z,1680.00
2018-06-29T07:37:34.369Z,1744.00
2018-06-29T07:38:35.494Z,1760.00
2018-06-29T07:39:34.523Z,1784.00
2018-06-29T07:40:34.731Z,1800.00
2018-06-29T07:41:33.916Z,1852.00
2018-06-29T07:42:33.898Z,1876.00
2018-06-29T07:43:33.957Z,1844.00
2018-06-29T07:44:33.922Z,1804.00
2018-06-29T07:45:33.948Z,1772.00
2018-06-29T07:46:34.060Z,1784.00
2018-06-29T07:47:34.001Z,1860.00
2018-06-29T07:48:34.040Z,2004.00
2018-06-29T07:49:33.996Z,2044.00
2018-06-29T07:50:34.032Z,1816.00
2018-06-29T07:51:33.984Z,1780.00
2018-06-29T07:52:33.964Z,1732.00
2018-06-29T07:53:33.985Z,1720.00
2018-06-29T07:54:34.027Z,1684.00
2018-06-29T07:55:34.054Z,1784.00
2018-06-29T07:56:34.127Z,1768.00
2018-06-29T07:57:34.115Z,1716.00
2018-06-29T07:58:34.098Z,1596.00
2018-06-29T07:59:34.039Z,1552.00
2018-06-29T08:00:34.037Z,1476.00
2018-06-29T08:01:34.080Z,1380.00
2018-06-29T08:02:34.083Z,1328.00
2018-06-29T08:03:34.068Z,1288.00
2018-06-29T08:04:34.063Z,1280.00
2018-06-29T08:05:34.111Z,1276.00
2018-06-29T08:06:34.103Z,1268.00
2018-06-29T08:07:34.124Z,1292.00
2018-06-29T08:08:34.096Z,1356.00
2018-06-29T08:09:34.104Z,1580.00
2018-06-29T08:10:34.171Z,1584.00
2018-06-29T08:11:34.119Z,1596.00
2018-06-29T08:12:34.280Z,1632.00
2018-06-29T08:13:34.200Z,1816.00
2018-06-29T08:14:34.176Z,1944.00
2018-06-29T08:15:34.151Z,2052.00
2018-06-29T08:16:34.291Z,2068.00
2018-06-29T08:17:34.177Z,2020.00
2018-06-29T08:18:34.175Z,1960.00
2018-06-29T08:19:34.187Z,1916.00
2018-06-29T08:20:34.198Z,1852.00
2018-06-29T08:21:34.252Z,1828.00
2018-06-29T08:22:34.301Z,1852.00
2018-06-29T08:23:34.311Z,1876.00
2018-06-29T08:24:34.295Z,1908.00
2018-06-29T08:25:34.309Z,1916.00
2018-06-29T08:26:34.248Z,1900.00
2018-06-29T08:27:34.267Z,1916.00
2018-06-29T08:28:34.262Z,2000.00
2018-06-29T08:29:34.273Z,2044.00
2018-06-29T08:30:34.287Z,2156.00
2018-06-29T08:31:34.287Z,2220.00
2018-06-29T08:32:34.299Z,2216.00
2018-06-29T08:33:34.301Z,2388.00
2018-06-29T08:34:34.316Z,2132.00
2018-06-29T08:35:34.336Z,2076.00
2018-06-29T08:36:34.446Z,2172.00
2018-06-29T08:37:34.388Z,2104.00
2018-06-29T08:38:34.359Z,2128.00
2018-06-29T08:39:34.434Z,2124.00
2018-06-29T08:40:34.368Z,2112.00
2018-06-29T08:41:34.371Z,2092.00
2018-06-29T08:42:34.381Z,2032.00
2018-06-29T08:43:34.392Z,1856.00
2018-06-29T08:44:34.500Z,1812.00
2018-06-29T08:45:34.405Z,1620.00
2018-06-29T08:46:34.450Z,1584.00
2018-06-29T08:47:34.473Z,1592.00
2018-06-29T08:48:34.555Z,1664.00
2018-06-29T08:49:34.564Z,1620.00
2018-06-29T08:50:34.566Z,1600.00
2018-06-29T08:51:34.473Z,1568.00
2018-06-29T08:52:36.362Z,1540.00
2018-06-29T08:53:34.593Z,1512.00
2018-06-29T08:54:34.510Z,1496.00
2018-06-29T08:55:34.605Z,1480.00
2018-06-29T08:56:35.292Z,1464.00
2018-06-29T08:57:34.633Z,1488.00
2018-06-29T08:58:34.648Z,1548.00
2018-06-29T08:59:34.615Z,1760.00
2018-06-29T09:00:34.629Z,1688.00
2018-06-29T09:01:34.556Z,1724.00
2018-06-29T09:02:34.555Z,1752.00
2018-06-29T09:03:34.630Z,1736.00
2018-06-29T09:04:34.613Z,1708.00
2018-06-29T09:05:34.679Z,1688.00
2018-06-29T09:06:34.605Z,1684.00
2018-06-29T09:07:34.618Z,1640.00
2018-06-29T09:08:34.632Z,1616.00
2018-06-29T09:09:34.676Z,1580.00
2018-06-29T09:10:34.630Z,1552.00
2018-06-29T09:11:34.638Z,1548.00
2018-06-29T09:12:34.728Z,1580.00
2018-06-29T09:13:34.760Z,1620.00
2018-06-29T09:14:34.693Z,1664.00
2018-06-29T09:15:34.755Z,1732.00
2018-06-29T09:16:34.684Z,1820.00
2018-06-29T09:17:34.691Z,1872.00
2018-06-29T09:18:34.712Z,1888.00
2018-06-29T09:19:34.715Z,1892.00
2018-06-29T09:20:34.731Z,1936.00
2018-06-29T09:21:34.729Z,1952.00
2018-06-29T09:22:34.741Z,1964.00
2018-06-29T09:23:34.741Z,1960.00
2018-06-29T09:24:34.761Z,1940.00
2018-06-29T09:25:34.779Z,1920.00
2018-06-29T09:26:34.772Z,1924.00
2018-06-29T09:27:34.869Z,2004.00
2018-06-29T09:28:34.803Z,2096.00
2018-06-29T09:29:34.799Z,2208.00
2018-06-29T09:30:34.814Z,2312.00
2018-06-29T09:31:34.850Z,2448.00
2018-06-29T09:32:34.854Z,2440.00
2018-06-29T09:33:34.840Z,2472.00
2018-06-29T09:34:34.895Z,2844.00
2018-06-29T09:35:34.881Z,2560.00
2018-06-29T09:36:34.865Z,2532.00
2018-06-29T09:37:34.874Z,3164.00
2018-06-29T09:38:34.913Z,2688.00
2018-06-29T09:39:34.892Z,3044.00
2018-06-29T09:40:34.903Z,2292.00
2018-06-29T09:41:34.983Z,2284.00
2018-06-29T09:42:35.069Z,2332.00
2018-06-29T09:43:37.822Z,2868.00
2018-06-29T09:44:35.013Z,2652.00
2018-06-29T09:45:35.023Z,2044.00
2018-06-29T09:46:35.867Z,1852.00
2018-06-29T09:47:35.065Z,1860.00
2018-06-29T09:48:35.015Z,2036.00
2018-06-29T09:49:35.087Z,2384.00
2018-06-29T09:50:35.027Z,2508.00
2018-06-29T09:51:35.059Z,2836.00
2018-06-29T09:52:35.049Z,2316.00
2018-06-29T09:53:35.041Z,2888.00
2018-06-29T09:54:35.107Z,2984.00
2018-06-29T09:55:35.062Z,2540.00
2018-06-29T09:56:35.063Z,2804.00
2018-06-29T09:57:35.166Z,3008.00
2018-06-29T09:58:35.086Z,2532.00
2018-06-29T09:59:35.125Z,2324.00
2018-06-29T10:00:35.160Z,2192.00
2018-06-29T10:01:35.131Z,2156.00
2018-06-29T10:02:39.273Z,2092.00
2018-06-29T10:03:35.129Z,2072.00
2018-06-29T10:04:35.140Z,2096.00
2018-06-29T10:05:35.155Z,2072.00
2018-06-29T10:06:35.200Z,2056.00
2018-06-29T10:07:35.298Z,2032.00
2018-06-29T10:08:35.186Z,2044.00
2018-06-29T10:09:35.255Z,2056.00
2018-06-29T10:10:35.276Z,2072.00
2018-06-29T10:11:35.213Z,2088.00
2018-06-29T10:12:35.221Z,2120.00
2018-06-29T10:13:35.232Z,2128.00
2018-06-29T10:14:35.253Z,2136.00
2018-06-29T10:15:35.252Z,2160.00
2018-06-29T10:16:35.302Z,2132.00
2018-06-29T10:17:35.308Z,2108.00
2018-06-29T10:18:35.289Z,2096.00
2018-06-29T10:19:35.425Z,2064.00
2018-06-29T10:20:35.310Z,2036.00
2018-06-29T10:21:35.324Z,2040.00
2018-06-29T10:22:35.422Z,2076.00
2018-06-29T10:23:35.344Z,2128.00
2018-06-29T10:24:35.450Z,2156.00
2018-06-29T10:25:35.415Z,2188.00
2018-06-29T10:26:35.370Z,2196.00
2018-06-29T10:27:35.397Z,2220.00
2018-06-29T10:28:35.407Z,2248.00
2018-06-29T10:29:35.398Z,2364.00
2018-06-29T10:30:35.454Z,2212.00
2018-06-29T10:31:35.424Z,2200.00
2018-06-29T10:32:35.432Z,2592.00
2018-06-29T10:33:35.482Z,2616.00
2018-06-29T10:34:35.450Z,3312.00
2018-06-29T10:35:35.489Z,2688.00
2018-06-29T10:36:35.474Z,2516.00
2018-06-29T10:37:35.483Z,2640.00
2018-06-29T10:38:35.505Z,3288.00
2018-06-29T10:39:35.510Z,3168.00
2018-06-29T10:40:35.515Z,2060.00
2018-06-29T10:41:35.604Z,2868.00
2018-06-29T10:42:35.581Z,2972.00
2018-06-29T10:43:35.551Z,2676.00
2018-06-29T10:44:35.571Z,2836.00
2018-06-29T10:45:35.648Z,2684.00
2018-06-29T10:46:35.626Z,2576.00
2018-06-29T10:47:35.636Z,2552.00
2018-06-29T10:48:35.609Z,2620.00
2018-06-29T10:49:35.624Z,2876.00
2018-06-29T10:50:35.649Z,3048.00
2018-06-29T10:51:35.653Z,3088.00
2018-06-29T10:52:35.690Z,3032.00
2018-06-29T10:53:35.682Z,3064.00
2018-06-29T10:54:35.749Z,3052.00
2018-06-29T10:55:35.743Z,3084.00
2018-06-29T10:56:35.715Z,3128.00
2018-06-29T10:57:35.708Z,3136.00
2018-06-29T10:58:35.809Z,3108.00
2018-06-29T10:59:35.766Z,3036.00
2018-06-29T11:00:35.752Z,2952.00
2018-06-29T11:01:35.756Z,2888.00
2018-06-29T11:02:35.825Z,2816.00
2018-06-29T11:03:35.784Z,2752.00
2018-06-29T11:04:35.791Z,2676.00
2018-06-29T11:05:35.812Z,2664.00
2018-06-29T11:06:35.815Z,2640.00
2018-06-29T11:07:35.922Z,2648.00
2018-06-29T11:08:35.862Z,2664.00
2018-06-29T11:09:35.873Z,2696.00
2018-06-29T11:10:35.860Z,2712.00
2018-06-29T11:11:35.868Z,2688.00
2018-06-29T11:12:35.956Z,2672.00
2018-06-29T11:13:35.899Z,2676.00
2018-06-29T11:14:35.980Z,2676.00
2018-06-29T11:15:35.922Z,2684.00
2018-06-29T11:16:36.126Z,2684.00
2018-06-29T11:17:35.945Z,2688.00
2018-06-29T11:18:36.066Z,2684.00
2018-06-29T11:19:36.016Z,2688.00
2018-06-29T11:20:36.008Z,2660.00
2018-06-29T11:21:36.031Z,2684.00
2018-06-29T11:22:36.140Z,2688.00
2018-06-29T11:23:36.079Z,2684.00
2018-06-29T11:24:36.028Z,2672.00
2018-06-29T11:25:36.040Z,2672.00
2018-06-29T11:26:36.098Z,2684.00
2018-06-29T11:27:36.143Z,2664.00
2018-06-29T11:28:36.073Z,2724.00
2018-06-29T11:29:36.130Z,2692.00
2018-06-29T11:30:36.097Z,2676.00
2018-06-29T11:31:36.107Z,2680.00
2018-06-29T11:32:36.118Z,2748.00
2018-06-29T11:33:36.276Z,2684.00
2018-06-29T11:34:36.151Z,2716.00
2018-06-29T11:35:36.165Z,2752.00
2018-06-29T11:36:36.201Z,2772.00
2018-06-29T11:37:36.195Z,2796.00
2018-06-29T11:38:36.195Z,2788.00
2018-06-29T11:39:36.248Z,2760.00
2018-06-29T11:40:36.251Z,2740.00
2018-06-29T11:41:36.231Z,2796.00
2018-06-29T11:42:36.312Z,2744.00
2018-06-29T11:43:36.324Z,2668.00
2018-06-29T11:44:36.348Z,2736.00
2018-06-29T11:45:36.282Z,2820.00
2018-06-29T11:46:36.329Z,2272.00
2018-06-29T11:47:36.304Z,2768.00
2018-06-29T11:48:36.383Z,1124.00
2018-06-29T11:49:36.379Z,2732.00
2018-06-29T11:50:36.403Z,2896.00
2018-06-29T11:51:36.433Z,2920.00
2018-06-29T11:52:36.426Z,2876.00
2018-06-29T11:53:36.380Z,2620.00
2018-06-29T11:54:36.390Z,1680.00
2018-06-29T11:55:36.409Z,2868.00
2018-06-29T11:56:36.429Z,2952.00
2018-06-29T11:57:36.480Z,2924.00
2018-06-29T11:58:36.486Z,2944.00
2018-06-29T11:59:36.455Z,2932.00
2018-06-29T12:00:36.510Z,2956.00
2018-06-29T12:01:36.553Z,2932.00
2018-06-29T12:02:36.522Z,2972.00
2018-06-29T12:03:36.690Z,2992.00
2018-06-29T12:04:36.508Z,2968.00
2018-06-29T12:05:36.573Z,2952.00
2018-06-29T12:06:36.538Z,1260.00
2018-06-29T12:07:36.611Z,3024.00
2018-06-29T12:08:36.689Z,3016.00
2018-06-29T12:09:36.622Z,3032.00
